Omno-Gobi, Mongolia
Current Conditions -  °F | °C
As of 10:00 PM on Monday 26 Jan 2015 (Local Time) from UNAA Reporting Station
Smoke Smoke  
Wind Chill: -13°   Ceiling: 20000
Heat Index: -13°   Visibility: 0.87mi
Dew Point: -20°   Wind: 0mph
Humidity: 70%   Direction: NA
Pressure: 30.71"   Gusts: NA
Location:  49.02°N, 91.72°E
Report Text: UNAA 261400Z 00000MPS 1400 R02/P1500N FU BR SCT006 BKN200M25/M29 Q1040 NOSIG RMK QFE757 52190055
Loading
Personal Weather Stations






























Interactive Weather Map New forecast layout! Learn more

10-Day Weather Forecast

Advertisements
Track Severe Weather on mobile